Time;durP1;ratioP1;P1;durP2;ratioP2;P2;SDS_P1;SDS_P2;PMS_P1;PMS_P2;Temp;Humidity;BMP_temperature;BMP_pressure;BME280_temperature;BME280_humidity;BME280_pressure;Samples;Min_cycle;Max_cycle;Signal;HPM_P1;HPM_P2
2021/09/23 00:01:53;;;;;;;5.22;4.70;;;;;;;11.65;68.69;97462.56;6244452;23;20027;-76
2021/09/23 00:04:32;;;;;;;6.25;4.30;;;;;;;11.67;68.82;97465.81;6245146;23;20054;-77
2021/09/23 00:07:01;;;;;;;6.22;4.82;;;;;;;11.73;68.85;97461.72;6244967;23;20031;-77
2021/09/23 00:09:30;;;;;;;5.35;4.85;;;;;;;11.75;69.01;97452.75;6244531;23;20091;-77
2021/09/23 00:11:58;;;;;;;8.45;4.78;;;;;;;11.78;68.64;97451.59;6244715;23;20024;-77
2021/09/23 00:14:26;;;;;;;7.90;4.75;;;;;;;11.78;68.64;97448.16;6244884;23;20047;-77
2021/09/23 00:16:53;;;;;;;8.00;5.20;;;;;;;11.78;69.09;97448.16;6245279;23;20024;-77
2021/09/23 00:19:21;;;;;;;6.13;3.95;;;;;;;11.81;69.17;97440.81;6244520;23;20020;-77
2021/09/23 00:21:48;;;;;;;5.45;4.10;;;;;;;11.83;68.99;97438.84;6244851;23;20020;-77
2021/09/23 00:24:16;;;;;;;6.00;4.57;;;;;;;11.88;68.90;97439.16;6244691;23;20056;-77
2021/09/23 00:26:45;;;;;;;7.60;4.32;;;;;;;11.90;69.22;97434.59;6244714;23;20359;-77
2021/09/23 00:29:13;;;;;;;5.50;3.88;;;;;;;11.96;69.02;97435.72;6244304;23;20035;-77
2021/09/23 00:31:41;;;;;;;8.55;4.68;;;;;;;11.98;68.79;97435.53;6244994;23;20514;-77
2021/09/23 00:34:08;;;;;;;5.70;4.68;;;;;;;11.98;68.88;97441.56;6244833;23;20020;-77
2021/09/23 00:36:36;;;;;;;5.43;4.30;;;;;;;11.99;69.01;97426.72;6244896;23;20020;-77
2021/09/23 00:39:04;;;;;;;5.05;4.35;;;;;;;12.00;68.88;97428.34;6244316;23;20031;-77
2021/09/23 00:41:31;;;;;;;6.15;4.30;;;;;;;12.01;68.93;97429.97;6244759;23;20047;-77
2021/09/23 00:44:13;;;;;;;8.32;3.97;;;;;;;12.04;69.29;97437.47;6244170;23;20024;-77
2021/09/23 00:46:40;;;;;;;7.50;3.75;;;;;;;12.06;69.16;97430.28;6244868;23;20330;-77
2021/09/23 00:49:08;;;;;;;6.20;3.83;;;;;;;12.08;68.86;97436.97;6244514;23;20020;-77
2021/09/23 00:51:35;;;;;;;7.22;4.20;;;;;;;12.09;69.00;97427.31;6244217;23;20482;-76
2021/09/23 00:54:03;;;;;;;6.18;4.13;;;;;;;12.11;69.02;97433.19;6244328;23;20456;-77
2021/09/23 00:56:31;;;;;;;7.20;4.30;;;;;;;12.13;68.73;97425.97;6244807;23;20031;-77
2021/09/23 00:59:00;;;;;;;6.55;4.60;;;;;;;12.16;69.01;97430.88;6244242;23;20020;-77
2021/09/23 01:01:27;;;;;;;4.82;3.65;;;;;;;12.19;69.17;97422.69;6244614;23;20031;-77
2021/09/23 01:03:56;;;;;;;8.82;4.40;;;;;;;12.23;68.65;97416.13;6244986;23;20028;-76
2021/09/23 01:06:24;;;;;;;10.60;4.10;;;;;;;12.24;68.39;97415.13;6244684;23;20042;-77
2021/09/23 01:08:55;;;;;;;9.32;4.00;;;;;;;12.25;68.30;97421.19;6244070;23;20348;-77
2021/09/23 01:11:23;;;;;;;8.90;4.70;;;;;;;12.26;68.37;97415.78;6244552;23;20020;-77
2021/09/23 01:13:51;;;;;;;5.45;3.95;;;;;;;12.27;68.38;97400.91;6244604;23;20024;-77
2021/09/23 01:16:20;;;;;;;5.80;3.95;;;;;;;12.32;68.38;97403.81;6245087;23;20016;-77
2021/09/23 01:18:48;;;;;;;5.88;3.83;;;;;;;12.34;68.00;97397.41;6244782;23;20325;-77
2021/09/23 01:21:17;;;;;;;6.95;4.30;;;;;;;12.35;67.48;97403.47;6246670;23;20020;-77
2021/09/23 01:23:45;;;;;;;6.05;3.85;;;;;;;12.38;67.62;97397.09;6246524;23;20056;-77
2021/09/23 01:26:18;;;;;;;6.85;4.05;;;;;;;12.36;67.31;97395.44;6246665;23;20020;-77
2021/09/23 01:28:46;;;;;;;6.97;4.68;;;;;;;12.33;67.50;97395.81;6246342;23;20027;-77
2021/09/23 01:31:13;;;;;;;8.88;4.43;;;;;;;12.31;67.59;97397.78;6246226;23;20020;-77
2021/09/23 01:33:41;;;;;;;6.63;4.40;;;;;;;12.31;67.70;97389.94;6246707;23;20024;-77
2021/09/23 01:36:08;;;;;;;4.35;3.95;;;;;;;12.35;67.98;97387.75;6246541;23;20020;-77
2021/09/23 01:38:37;;;;;;;6.10;4.28;;;;;;;12.38;68.04;97395.28;6246215;23;20024;-77
2021/09/23 01:41:05;;;;;;;6.30;4.65;;;;;;;12.40;67.43;97393.31;6246912;23;20367;-77
2021/09/23 01:43:32;;;;;;;6.50;4.40;;;;;;;12.41;67.06;97394.13;6246513;23;20024;-77
2021/09/23 01:46:00;;;;;;;5.72;3.53;;;;;;;12.40;67.23;97384.63;6246568;23;20026;-77
2021/09/23 01:48:28;;;;;;;6.55;3.90;;;;;;;12.41;66.70;97386.28;6245721;23;20051;-77
2021/09/23 01:50:55;;;;;;;5.10;3.92;;;;;;;12.37;66.57;97380.56;6246532;23;20056;-77
2021/09/23 01:53:23;;;;;;;5.45;3.97;;;;;;;12.36;66.76;97382.38;6246519;23;20355;-77
2021/09/23 01:55:52;;;;;;;8.20;3.70;;;;;;;12.36;67.02;97371.09;6246680;23;20024;-78
2021/09/23 01:58:19;;;;;;;5.40;3.88;;;;;;;12.36;66.76;97371.91;6245864;23;20065;-77
2021/09/23 02:00:47;;;;;;;5.60;3.67;;;;;;;12.36;66.41;97371.91;6246551;23;20042;-77
2021/09/23 02:03:14;;;;;;;5.70;4.30;;;;;;;12.34;66.13;97371.25;6246505;23;20360;-77
2021/09/23 02:05:42;;;;;;;5.78;3.78;;;;;;;12.33;66.44;97364.41;6260549;23;20027;-78
2021/09/23 02:08:10;;;;;;;6.57;4.43;;;;;;;12.33;66.50;97366.19;6261245;23;20095;-77
2021/09/23 02:10:37;;;;;;;6.35;3.88;;;;;;;12.32;66.69;97361.97;6249018;23;20026;-77
2021/09/23 02:13:06;;;;;;;7.43;3.92;;;;;;;12.32;66.83;97365.38;6246596;23;20028;-77
2021/09/23 02:15:34;;;;;;;5.90;3.78;;;;;;;12.33;66.89;97360.97;6247350;23;20456;-78
2021/09/23 02:18:01;;;;;;;6.07;4.05;;;;;;;12.32;66.82;97356.72;6258799;23;20024;-78
2021/09/23 02:20:29;;;;;;;7.70;4.75;;;;;;;12.32;66.73;97362.78;6252033;23;20031;-77
2021/09/23 02:22:56;;;;;;;7.10;4.47;;;;;;;12.29;66.68;97351.84;6245655;23;20020;-77
2021/09/23 02:25:24;;;;;;;7.22;4.18;;;;;;;12.28;66.84;97350.22;6246013;23;20031;-77
2021/09/23 02:27:51;;;;;;;10.13;3.95;;;;;;;12.28;67.05;97351.03;6245879;23;20464;-77
2021/09/23 02:30:20;;;;;;;5.13;4.20;;;;;;;12.31;66.81;97342.84;6245828;23;20099;-77
2021/09/23 02:32:48;;;;;;;5.18;3.45;;;;;;;12.32;66.82;97347.06;6245579;23;20047;-77
2021/09/23 02:35:15;;;;;;;6.57;3.78;;;;;;;12.34;66.56;97339.06;6246015;23;20460;-77
2021/09/23 02:37:43;;;;;;;6.60;4.18;;;;;;;12.36;66.88;97330.03;6246037;23;20024;-77
2021/09/23 02:40:13;;;;;;;6.38;3.33;;;;;;;12.38;66.44;97335.09;6245263;23;20024;-77
2021/09/23 02:42:42;;;;;;;5.75;3.75;;;;;;;12.37;66.11;97325.63;6245858;23;20075;-77
2021/09/23 02:45:11;;;;;;;5.80;3.75;;;;;;;12.39;65.72;97328.06;6246094;23;20020;-77
2021/09/23 02:47:40;;;;;;;7.35;3.22;;;;;;;12.38;65.95;97327.25;6246013;23;20079;-77
2021/09/23 02:50:08;;;;;;;6.85;3.58;;;;;;;12.38;65.84;97326.44;6245674;23;20352;-77
2021/09/23 02:52:36;;;;;;;6.30;3.92;;;;;;;12.38;65.80;97329.06;6245059;23;20472;-77
2021/09/23 02:55:05;;;;;;;8.13;3.67;;;;;;;12.39;65.74;97328.88;6245269;23;20464;-77
2021/09/23 02:57:33;;;;;;;4.28;2.95;;;;;;;12.39;65.75;97321.03;6245649;23;20021;-78
2021/09/23 03:00:00;;;;;;;5.40;3.33;;;;;;;12.40;65.80;97324.44;6245228;23;20020;-77
2021/09/23 03:02:28;;;;;;;6.60;3.85;;;;;;;12.42;65.85;97325.09;6245069;23;20024;-77
2021/09/23 03:04:57;;;;;;;3.78;3.20;;;;;;;12.46;65.64;97336.84;6245226;23;20024;-77
2021/09/23 03:07:25;;;;;;;7.40;3.88;;;;;;;12.45;65.31;97319.53;6245036;23;20051;-77
2021/09/23 03:09:52;;;;;;;4.35;3.78;;;;;;;12.45;65.07;97320.31;6245149;23;20031;-77
2021/09/23 03:12:20;;;;;;;6.63;3.70;;;;;;;12.45;65.01;97315.09;6245501;23;20023;-77
2021/09/23 03:14:49;;;;;;;4.85;3.25;;;;;;;12.46;64.97;97308.06;6245302;23;20020;-76
2021/09/23 03:17:16;;;;;;;3.80;3.10;;;;;;;12.45;64.86;97301.19;6245258;23;20107;-77
2021/09/23 03:19:44;;;;;;;4.57;3.35;;;;;;;12.44;64.66;97296.94;6244467;23;20027;-77
2021/09/23 03:22:16;;;;;;;4.75;3.92;;;;;;;12.41;64.63;97292.88;6244930;23;20048;-76
2021/09/23 03:24:45;;;;;;;7.55;4.25;;;;;;;12.36;64.77;97292.59;6244741;23;20045;-77
2021/09/23 03:27:13;;;;;;;6.07;4.22;;;;;;;12.32;64.94;97284.28;6245314;23;20020;-77
2021/09/23 03:29:41;;;;;;;5.75;3.88;;;;;;;12.30;65.01;97288.88;6244368;23;20024;-77
2021/09/23 03:32:10;;;;;;;4.45;3.72;;;;;;;12.28;65.24;97277.78;6244682;23;20024;-77
2021/09/23 03:34:37;;;;;;;8.68;4.53;;;;;;;12.27;65.35;97277.97;6245195;23;20024;-77
2021/09/23 03:37:05;;;;;;;7.93;3.83;;;;;;;12.26;65.70;97279.75;6245113;23;20027;-77
2021/09/23 03:39:34;;;;;;;7.00;4.53;;;;;;;12.27;65.73;97276.16;6244742;23;20046;-77
2021/09/23 03:42:01;;;;;;;6.15;3.40;;;;;;;12.28;65.90;97275.16;6244863;23;20031;-79
2021/09/23 03:44:29;;;;;;;4.68;3.53;;;;;;;12.29;66.08;97276.00;6244745;23;20031;-77
2021/09/23 03:46:57;;;;;;;4.90;4.22;;;;;;;12.28;65.69;97277.78;6244950;23;20020;-77
2021/09/23 03:49:24;;;;;;;8.15;4.53;;;;;;;12.28;65.68;97280.38;6244669;23;20019;-76
2021/09/23 03:51:52;;;;;;;8.00;4.45;;;;;;;12.27;65.68;97281.41;6252024;23;20024;-78
2021/09/23 03:54:20;;;;;;;5.60;3.55;;;;;;;12.27;65.59;97276.16;6250201;23;20075;-77
2021/09/23 03:56:48;;;;;;;7.95;3.65;;;;;;;12.28;65.75;97279.59;6244916;23;20043;-77
2021/09/23 03:59:16;;;;;;;7.38;3.92;;;;;;;12.29;65.80;97268.16;6244615;23;20172;-76
2021/09/23 04:01:45;;;;;;;6.00;4.00;;;;;;;12.31;65.89;97269.59;6244875;23;20020;-77
2021/09/23 04:04:13;;;;;;;6.43;3.67;;;;;;;12.33;65.59;97265.00;6244492;23;20023;-77
2021/09/23 04:06:43;;;;;;;4.78;3.53;;;;;;;12.36;65.69;97258.59;6244778;23;20016;-77
2021/09/23 04:09:11;;;;;;;5.55;3.80;;;;;;;12.38;65.45;97266.28;6244255;23;20468;-77
2021/09/23 04:11:39;;;;;;;6.75;4.40;;;;;;;12.40;65.53;97259.88;6244712;23;20387;-77
2021/09/23 04:14:08;;;;;;;5.88;4.00;;;;;;;12.42;65.37;97254.44;6244732;23;20107;-77
2021/09/23 04:16:36;;;;;;;5.47;3.60;;;;;;;12.43;65.61;97245.63;6244724;23;20464;-77
2021/09/23 04:19:04;;;;;;;5.55;4.20;;;;;;;12.45;65.17;97230.56;6244847;23;20024;-78
2021/09/23 04:21:32;;;;;;;5.93;4.35;;;;;;;12.42;65.22;97238.75;6245253;23;20055;-77
2021/09/23 04:24:00;;;;;;;9.15;4.22;;;;;;;12.36;65.65;97233.25;6248204;22;20024;-79
2021/09/23 04:26:27;;;;;;;6.97;4.70;;;;;;;12.34;65.57;97227.38;6254386;23;20348;-81
2021/09/23 04:28:55;;;;;;;6.38;4.68;;;;;;;12.32;65.42;97224.13;6254900;23;20020;-80
2021/09/23 04:31:24;;;;;;;4.75;4.28;;;;;;;12.30;65.70;97218.25;6256117;23;20344;-81
2021/09/23 04:33:51;;;;;;;6.80;4.20;;;;;;;12.31;65.67;97212.03;6256449;23;20021;-81
2021/09/23 04:36:19;;;;;;;5.47;4.60;;;;;;;12.31;65.86;97219.88;6252698;23;20020;-81
2021/09/23 04:38:47;;;;;;;6.65;4.85;;;;;;;12.31;65.77;97219.06;6254974;23;20409;-81
2021/09/23 04:41:14;;;;;;;7.65;5.20;;;;;;;12.30;65.70;97206.97;6254761;23;20091;-81
2021/09/23 04:43:43;;;;;;;7.97;4.68;;;;;;;12.30;66.16;97213.00;6252607;23;20456;-81
2021/09/23 04:46:10;;;;;;;12.43;4.93;;;;;;;12.32;66.04;97205.00;6252698;23;20030;-81
2021/09/23 04:48:39;;;;;;;17.52;9.95;;;;;;;12.31;66.20;97208.59;6253481;23;20020;-81
2021/09/23 04:51:07;;;;;;;11.18;6.70;;;;;;;12.30;66.08;97202.56;6252781;23;20110;-81
2021/09/23 04:53:34;;;;;;;12.20;6.97;;;;;;;12.31;66.07;97212.03;6253806;23;20024;-81
2021/09/23 04:56:02;;;;;;;7.82;5.10;;;;;;;12.31;65.99;97213.81;6254928;23;20024;-81
2021/09/23 04:58:29;;;;;;;7.18;4.97;;;;;;;12.30;65.92;97207.78;6258565;22;20078;-80
2021/09/23 05:48:23;;;;;;;11.25;6.60;;;;;;;11.83;67.65;97164.38;6268636;22;20003;-80
2021/09/23 05:54:36;;;;;;;10.65;6.65;;;;;;;11.89;67.42;97168.09;6244098;23;20012;-80
2021/09/23 06:00:11;;;;;;;11.82;5.80;;;;;;;11.90;67.39;97175.78;6247758;22;20000;-81
2021/09/23 06:02:45;;;;;;;7.88;5.35;;;;;;;11.94;67.40;97179.66;6268961;22;20024;-81
2021/09/23 06:05:18;;;;;;;8.25;5.50;;;;;;;11.98;67.48;97182.72;6260632;23;20071;-80
2021/09/23 06:07:50;;;;;;;9.25;5.80;;;;;;;12.02;67.10;97185.81;6269446;22;20000;-80
2021/09/23 06:10:19;;;;;;;8.77;5.22;;;;;;;12.04;67.11;97183.81;6271091;23;20032;-81
2021/09/23 06:12:48;;;;;;;5.50;4.43;;;;;;;12.08;67.08;97183.28;6272464;23;20074;-81
2021/09/23 06:15:17;;;;;;;5.78;4.45;;;;;;;12.14;67.11;97189.63;6272274;23;20031;-81
2021/09/23 06:17:46;;;;;;;8.10;5.03;;;;;;;12.19;66.95;97187.28;6273555;22;20011;-80
2021/09/23 06:20:30;;;;;;;;;;;;;;;12.24;66.59;97182.31;6249234;23;20008;-80
2021/09/23 06:22:59;;;;;;;7.43;5.75;;;;;;;12.27;66.61;97184.59;6271697;23;19916;-81
2021/09/23 06:25:31;;;;;;;8.70;6.47;;;;;;;12.28;66.64;97188.84;6272591;23;20063;-80
2021/09/23 06:28:01;;;;;;;10.02;6.63;;;;;;;12.33;66.59;97188.28;6272386;23;20004;-81
2021/09/23 06:33:06;;;;;;;9.55;6.10;;;;;;;12.45;66.51;97183.47;6271748;22;20020;-83
2021/09/23 06:36:15;;;;;;;9.43;5.63;;;;;;;12.51;66.21;97180.13;6269304;22;20050;-80
2021/09/23 06:38:54;;;;;;;12.75;6.10;;;;;;;12.57;66.31;97188.06;6272067;23;20016;-80
2021/09/23 06:41:27;;;;;;;12.65;5.82;;;;;;;12.65;66.04;97170.66;6271977;22;20047;-79
2021/09/23 06:43:56;;;;;;;7.55;5.45;;;;;;;12.70;65.88;97163.06;6272357;23;20076;-80
2021/09/23 06:49:31;;;;;;;7.13;5.05;;;;;;;12.85;65.52;97163.88;6273623;23;20025;-80
2021/09/23 06:52:11;;;;;;;7.95;4.95;;;;;;;12.96;65.29;97152.13;6272819;23;20024;-80
2021/09/23 06:54:54;;;;;;;7.38;4.35;;;;;;;13.06;64.73;97149.22;6273403;22;20016;-80
2021/09/23 06:57:29;;;;;;;8.32;5.15;;;;;;;13.15;64.53;97148.91;6273586;22;20023;-78
2021/09/23 07:00:22;;;;;;;5.97;4.68;;;;;;;13.28;64.25;97152.69;6272657;22;20004;-83
2021/09/23 07:03:06;;;;;;;5.25;4.65;;;;;;;13.43;63.80;97150.88;6286023;22;20008;-82
2021/09/23 07:05:41;;;;;;;6.18;4.07;;;;;;;13.54;63.72;97147.75;6305667;22;20003;-82
2021/09/23 07:14:41;;;;;;;4.82;3.33;;;;;;;13.97;62.91;97139.88;6258463;22;20032;-80
2021/09/23 07:17:46;;;;;;;5.00;3.72;;;;;;;14.15;62.29;97136.78;6223310;23;20020;-83
2021/09/23 07:20:37;;;;;;;5.00;4.18;;;;;;;14.31;61.62;97140.09;6279667;22;20004;-81
2021/09/23 07:29:18;;;;;;;4.13;3.33;;;;;;;14.78;59.63;97143.81;6266207;22;20023;-79
2021/09/23 07:32:26;;;;;;;4.55;3.28;;;;;;;14.93;57.99;97146.31;6273170;23;20020;-79
2021/09/23 08:36:01;;;;;;;4.45;2.13;;;;;;;18.91;46.71;97151.28;6185811;22;20012;-78
2021/09/23 08:41:16;;;;;;;2.93;1.67;;;;;;;19.06;46.18;97144.81;6278730;22;20032;-81
2021/09/23 08:43:44;;;;;;;4.28;1.92;;;;;;;19.20;46.29;97146.28;6257514;22;20008;-78
2021/09/23 08:49:05;;;;;;;2.17;1.83;;;;;;;19.55;45.61;97156.19;6257271;22;20000;-80
2021/09/23 10:07:57;;;;;;;3.30;1.23;;;;;;;25.15;32.82;97059.47;6220582;22;19930;-82
2021/09/23 10:10:28;;;;;;;4.45;1.60;;;;;;;25.36;33.52;97057.63;6247202;23;20030;-78
2021/09/23 10:18:39;;;;;;;1.60;1.50;;;;;;;26.15;31.54;97059.00;6253668;22;20031;-80
2021/09/23 10:23:57;;;;;;;1.52;1.38;;;;;;;26.59;30.85;97061.03;6254618;22;20046;-76
2021/09/23 10:26:30;;;;;;;1.88;1.20;;;;;;;26.75;31.20;97058.28;6243055;23;20028;-75
2021/09/23 10:29:00;;;;;;;2.13;1.33;;;;;;;26.93;30.49;97057.66;6244098;23;20020;-75
2021/09/23 10:31:32;;;;;;;2.50;1.40;;;;;;;27.13;30.53;97054.88;6245273;23;20020;-75
2021/09/23 10:34:00;;;;;;;2.50;1.67;;;;;;;27.34;30.38;97046.72;6245423;23;20020;-76
2021/09/23 10:36:29;;;;;;;4.07;1.25;;;;;;;27.51;29.87;97060.53;6249468;23;20020;-85
2021/09/23 10:38:59;;;;;;;2.40;1.10;;;;;;;27.84;28.97;97046.59;6251140;23;20020;-79
2021/09/23 10:41:28;;;;;;;4.85;1.67;;;;;;;28.43;28.50;97050.06;6245111;23;20020;-75
2021/09/23 10:43:57;;;;;;;4.30;1.38;;;;;;;29.09;27.83;97054.63;6244938;23;20099;-76
2021/09/23 10:46:26;;;;;;;1.40;1.20;;;;;;;29.78;27.32;97048.75;6244506;23;20531;-76
2021/09/23 10:48:55;;;;;;;1.38;1.20;;;;;;;30.45;26.08;97053.75;6244760;23;20020;-76
2021/09/23 10:51:23;;;;;;;2.15;1.10;;;;;;;31.02;25.38;97052.63;6244927;23;20020;-76
2021/09/23 10:53:55;;;;;;;1.17;0.90;;;;;;;31.48;24.68;97044.28;6244782;23;20071;-76
2021/09/23 10:56:26;;;;;;;2.25;0.95;;;;;;;31.96;24.08;97054.41;6245400;23;20047;-76
2021/09/23 10:58:54;;;;;;;1.42;1.10;;;;;;;32.37;23.68;97052.59;6245822;23;20095;-77
2021/09/23 11:01:24;;;;;;;1.85;1.20;;;;;;;32.72;23.27;97052.72;6247634;23;20032;-78
2021/09/23 11:03:55;;;;;;;1.30;1.20;;;;;;;32.98;23.10;97050.84;6246513;23;20491;-77
2021/09/23 11:06:32;;;;;;;1.10;1.10;;;;;;;33.23;21.98;97052.00;6246451;23;20475;-76
2021/09/23 11:09:17;;;;;;;3.08;1.33;;;;;;;33.45;22.19;97052.94;6245357;23;20020;-76
2021/09/23 11:11:48;;;;;;;1.30;1.20;;;;;;;33.62;21.47;97044.84;6245546;23;20091;-76
2021/09/23 11:14:17;;;;;;;1.90;1.13;;;;;;;33.78;21.26;97047.03;6245080;23;20122;-76
2021/09/23 11:16:47;;;;;;;8.25;1.50;;;;;;;33.94;20.72;97036.50;6244898;23;20024;-77
2021/09/23 11:19:17;;;;;;;1.50;1.20;;;;;;;34.13;20.96;97041.56;6248365;23;20036;-76
2021/09/23 11:21:46;;;;;;;1.60;1.10;;;;;;;34.28;20.75;97048.34;6246200;23;20020;-77
2021/09/23 11:24:14;;;;;;;2.35;1.20;;;;;;;34.34;20.13;97038.94;6249334;23;20020;-77
2021/09/23 11:26:42;;;;;;;2.17;0.80;;;;;;;34.34;20.39;97033.50;6249636;23;20020;-78
2021/09/23 11:29:13;;;;;;;1.38;1.10;;;;;;;34.36;19.88;97028.56;6249993;23;20405;-77
2021/09/23 11:31:48;;;;;;;2.63;1.42;;;;;;;34.43;20.64;97021.50;6249056;23;20027;-77
2021/09/23 11:34:32;;;;;;;2.72;1.08;;;;;;;34.58;19.86;97022.06;6249965;23;20045;-77
2021/09/23 11:37:01;;;;;;;1.15;1.05;;;;;;;34.81;19.91;97009.03;6251430;23;20020;-78
2021/09/23 11:39:28;;;;;;;1.17;0.88;;;;;;;34.99;19.02;97012.44;6247953;23;20091;-77
2021/09/23 11:42:07;;;;;;;1.40;1.08;;;;;;;34.96;19.05;96999.50;6247042;23;20024;-77
2021/09/23 11:44:36;;;;;;;1.38;1.20;;;;;;;34.71;19.65;96999.38;6248076;23;20460;-77
2021/09/23 11:47:21;;;;;;;2.22;1.10;;;;;;;34.41;18.76;96980.41;6247823;23;20024;-77
2021/09/23 11:49:52;;;;;;;2.08;1.15;;;;;;;34.22;19.38;96978.13;6247162;23;20017;-77
2021/09/23 11:52:21;;;;;;;1.73;0.93;;;;;;;34.23;19.61;96974.28;6247824;23;20020;-76
2021/09/23 11:54:52;;;;;;;4.57;1.20;;;;;;;34.28;20.97;96980.66;6247089;23;20103;-76
2021/09/23 11:57:25;;;;;;;1.02;1.00;;;;;;;34.12;19.82;96972.31;6246347;23;20472;-76
2021/09/23 12:00:00;;;;;;;2.28;1.50;;;;;;;33.86;21.12;96965.03;6245722;23;20016;-77
2021/09/23 12:02:29;;;;;;;4.07;1.45;;;;;;;33.63;22.38;96964.47;6247461;23;20426;-75
2021/09/23 12:05:00;;;;;;;3.45;1.90;;;;;;;33.30;22.28;96969.63;6246548;23;20551;-79
2021/09/23 12:07:28;;;;;;;4.28;2.00;;;;;;;32.78;23.68;96955.00;6246566;23;20024;-76
2021/09/23 12:10:05;;;;;;;2.90;1.20;;;;;;;32.14;22.88;96952.00;6245790;23;20028;-75
2021/09/23 12:12:32;;;;;;;3.38;1.48;;;;;;;31.53;24.17;96949.81;6246479;23;20099;-77
2021/09/23 12:15:01;;;;;;;4.18;1.70;;;;;;;30.96;26.69;96952.25;6247539;23;20020;-76
2021/09/23 12:17:29;;;;;;;5.28;1.65;;;;;;;30.43;26.99;96932.13;6245201;23;20103;-77
2021/09/23 12:19:58;;;;;;;6.50;3.90;;;;;;;29.97;27.17;96927.66;6244618;23;20043;-75
2021/09/23 12:22:30;;;;;;;4.32;2.00;;;;;;;29.55;27.95;96927.59;6244028;23;20020;-75
2021/09/23 12:24:58;;;;;;;2.20;1.40;;;;;;;29.20;27.91;96918.28;6243578;23;20024;-75
2021/09/23 12:27:27;;;;;;;3.55;1.73;;;;;;;28.83;28.17;96905.69;6244347;23;20111;-77
2021/09/23 12:29:56;;;;;;;4.90;1.27;;;;;;;28.49;29.07;96902.16;6245436;23;20027;-76
2021/09/23 12:32:34;;;;;;;4.43;2.10;;;;;;;28.22;28.89;96897.38;6243887;23;20016;-74
2021/09/23 12:35:16;;;;;;;2.05;1.60;;;;;;;27.92;29.39;96888.63;6244032;23;20020;-76
2021/09/23 12:37:44;;;;;;;4.20;1.50;;;;;;;27.70;30.20;96888.31;6244052;23;20028;-77
2021/09/23 12:40:13;;;;;;;2.28;1.40;;;;;;;27.50;29.99;96881.28;6243792;23;20485;-75
2021/09/23 12:42:41;;;;;;;3.65;1.80;;;;;;;27.32;30.14;96880.13;6244539;23;20024;-76
2021/09/23 12:45:14;;;;;;;2.63;2.10;;;;;;;27.22;31.18;96877.53;6245211;23;20027;-77
2021/09/23 12:47:48;;;;;;;3.40;2.40;;;;;;;27.12;31.50;96878.41;6244415;23;20070;-76
2021/09/23 12:50:17;;;;;;;7.75;4.38;;;;;;;27.01;30.79;96874.22;6244310;23;20023;-77
2021/09/23 12:52:46;;;;;;;2.97;2.30;;;;;;;26.87;31.00;96874.06;6246421;23;20021;-76
2021/09/23 12:55:16;;;;;;;3.42;2.03;;;;;;;26.77;30.68;96872.28;6243160;23;20020;-76
2021/09/23 12:57:50;;;;;;;4.05;1.65;;;;;;;26.67;31.13;96870.44;6244862;23;20043;-76
2021/09/23 13:00:21;;;;;;;2.70;1.60;;;;;;;26.57;31.47;96867.06;6243808;23;20024;-76
2021/09/23 13:03:01;;;;;;;2.97;1.90;;;;;;;26.52;32.04;96865.19;6245006;23;20078;-75
2021/09/23 13:05:29;;;;;;;3.25;1.70;;;;;;;26.47;32.15;96867.91;6244549;23;20024;-75
2021/09/23 13:07:58;;;;;;;2.80;1.55;;;;;;;26.42;31.66;96873.28;6244394;23;20070;-77
2021/09/23 13:10:31;;;;;;;2.45;1.50;;;;;;;26.33;31.63;96864.22;6243591;23;20047;-76
2021/09/23 13:13:04;;;;;;;2.90;1.92;;;;;;;26.25;32.46;96863.75;6244623;23;20020;-76
2021/09/23 13:15:33;;;;;;;3.03;1.80;;;;;;;26.19;32.68;96858.69;6244672;23;20051;-76
2021/09/23 13:18:05;;;;;;;1.50;1.40;;;;;;;26.14;32.53;96866.75;6246601;23;20020;-76
2021/09/23 13:20:35;;;;;;;4.25;2.20;;;;;;;26.06;32.73;96868.13;6246067;23;20070;-76
2021/09/23 13:23:05;;;;;;;4.97;2.05;;;;;;;25.95;32.70;96859.34;6245512;23;20047;-75
2021/09/23 13:25:36;;;;;;;3.47;1.85;;;;;;;25.85;33.14;96860.16;6245942;23;20052;-78
2021/09/23 13:28:15;;;;;;;1.98;1.70;;;;;;;25.77;33.91;96850.03;6246331;23;20066;-80
2021/09/23 13:30:44;;;;;;;1.88;1.60;;;;;;;25.68;33.02;96855.16;6245813;23;20398;-80
2021/09/23 13:33:13;;;;;;;3.22;1.52;;;;;;;25.60;32.82;96857.56;6246772;23;20024;-78
2021/09/23 13:35:40;;;;;;;2.60;1.52;;;;;;;25.52;33.53;96856.28;6245833;23;20016;-78
2021/09/23 13:38:08;;;;;;;1.80;1.48;;;;;;;25.46;32.52;96852.81;6245618;23;20024;-77
2021/09/23 13:40:36;;;;;;;1.67;1.58;;;;;;;25.37;32.52;96848.31;6246259;23;20027;-79
2021/09/23 13:43:07;;;;;;;3.30;1.50;;;;;;;25.24;32.48;96847.00;6245509;23;20624;-79
2021/09/23 13:45:34;;;;;;;2.73;1.53;;;;;;;25.14;32.50;96844.28;6246503;23;20016;-78
2021/09/23 13:48:03;;;;;;;3.28;1.50;;;;;;;25.03;32.52;96838.97;6246276;23;20242;-78
2021/09/23 13:50:32;;;;;;;3.75;1.60;;;;;;;24.95;32.73;96836.03;6245719;23;20016;-78
2021/09/23 13:52:59;;;;;;;1.92;1.25;;;;;;;24.88;32.29;96831.78;6253621;23;20022;-79
2021/09/23 13:55:27;;;;;;;2.80;1.60;;;;;;;24.83;31.93;96834.44;6264493;23;20031;-79
2021/09/23 13:57:54;;;;;;;2.13;1.33;;;;;;;24.79;32.62;96844.03;6266090;23;20016;-79
2021/09/23 14:00:22;;;;;;;2.60;1.52;;;;;;;24.74;32.11;96845.94;6251982;23;20027;-79
2021/09/23 14:02:50;;;;;;;1.83;1.35;;;;;;;24.69;32.16;96846.72;6251427;23;20030;-78
2021/09/23 14:05:18;;;;;;;1.92;1.40;;;;;;;24.65;32.35;96851.78;6250158;23;20035;-78
2021/09/23 14:07:47;;;;;;;1.85;1.45;;;;;;;24.60;31.88;96853.66;6250563;23;20043;-78
2021/09/23 14:10:15;;;;;;;2.30;1.50;;;;;;;24.57;31.80;96848.84;6246582;23;20039;-78
2021/09/23 14:12:45;;;;;;;1.58;1.30;;;;;;;24.52;31.40;96844.31;6248368;23;20027;-78
2021/09/23 14:15:15;;;;;;;1.73;1.23;;;;;;;24.51;31.36;96844.56;6248660;23;20371;-78
2021/09/23 14:17:43;;;;;;;2.53;1.55;;;;;;;24.44;30.76;96837.59;6247918;23;20100;-79
2021/09/23 14:20:29;;;;;;;1.73;1.40;;;;;;;24.38;30.56;96833.34;6246826;23;20070;-76
2021/09/23 14:22:58;;;;;;;1.83;1.10;;;;;;;24.32;30.05;96838.94;6269347;22;20076;-76
2021/09/23 14:25:26;;;;;;;1.40;0.90;;;;;;;24.26;30.16;96830.91;6270380;23;20051;-76
2021/09/23 14:27:53;;;;;;;2.30;1.25;;;;;;;24.21;29.94;96822.91;6270004;23;20031;-77
2021/09/23 14:30:21;;;;;;;1.70;1.23;;;;;;;24.20;30.22;96831.94;6249210;23;20123;-77
2021/09/23 14:32:48;;;;;;;1.83;0.90;;;;;;;24.18;29.70;96828.78;6246144;23;20428;-77
2021/09/23 14:35:16;;;;;;;2.45;1.67;;;;;;;24.17;29.97;96821.81;6245937;23;20095;-77
2021/09/23 14:37:44;;;;;;;4.25;1.98;;;;;;;24.17;30.42;96824.50;6246418;23;20024;-77
2021/09/23 14:40:14;;;;;;;5.50;1.60;;;;;;;24.14;30.05;96819.69;6245699;23;20363;-76
2021/09/23 14:42:44;;;;;;;2.70;1.20;;;;;;;24.11;29.85;96825.53;6245104;23;20333;-76
2021/09/23 14:45:14;;;;;;;1.10;0.93;;;;;;;24.08;30.45;96810.09;6245422;23;20024;-76
2021/09/23 14:47:41;;;;;;;1.50;1.40;;;;;;;24.04;30.65;96804.47;6245731;23;20020;-76
2021/09/23 14:50:09;;;;;;;5.68;1.67;;;;;;;24.03;31.08;96810.06;6245616;23;20020;-77
2021/09/23 14:52:37;;;;;;;3.60;1.45;;;;;;;24.00;31.77;96805.25;6245749;23;20020;-77
2021/09/23 14:55:06;;;;;;;5.65;1.70;;;;;;;23.98;32.38;96807.38;6246154;23;20195;-76
2021/09/23 14:57:35;;;;;;;1.40;1.30;;;;;;;23.92;32.26;96798.59;6245300;23;20099;-78
2021/09/23 15:00:03;;;;;;;2.45;1.80;;;;;;;23.84;32.34;96801.75;6244091;23;20020;-76
2021/09/23 15:02:31;;;;;;;2.70;1.65;;;;;;;23.78;32.66;96792.94;6243154;23;20024;-78
2021/09/23 15:04:58;;;;;;;3.28;1.63;;;;;;;23.73;32.81;96800.09;6244156;23;20498;-78
2021/09/23 15:07:26;;;;;;;1.45;1.27;;;;;;;23.68;32.89;96797.41;6244297;23;20117;-78
2021/09/23 15:09:54;;;;;;;3.55;1.55;;;;;;;23.61;33.57;96793.13;6245406;23;20515;-78
2021/09/23 15:12:21;;;;;;;3.85;1.40;;;;;;;23.56;33.16;96782.44;6245525;23;20027;-79
2021/09/23 15:14:50;;;;;;;1.75;1.60;;;;;;;23.51;33.14;96789.63;6246008;23;20028;-78
2021/09/23 15:17:38;;;;;;;1.70;1.60;;;;;;;23.45;33.69;96778.94;6245652;23;20020;-78
2021/09/23 15:20:08;;;;;;;1.65;1.55;;;;;;;23.39;33.86;96773.84;6245659;23;20020;-78
2021/09/23 15:22:36;;;;;;;1.95;1.85;;;;;;;23.32;34.29;96771.44;6245446;23;20526;-77
2021/09/23 15:25:31;;;;;;;1.67;1.55;;;;;;;23.24;34.58;96758.59;6245367;23;20020;-78
2021/09/23 15:28:04;;;;;;;2.30;1.25;;;;;;;23.19;34.89;96766.56;6245525;23;20468;-78
2021/09/23 15:30:34;;;;;;;1.70;1.60;;;;;;;23.15;34.83;96765.47;6245733;23;20348;-78
2021/09/23 15:33:03;;;;;;;2.30;1.35;;;;;;;23.12;35.15;96760.69;6245999;23;20074;-77